Time;durP1;ratioP1;P1;durP2;ratioP2;P2;SDS_P1;SDS_P2;PMS_P1;PMS_P2;Temp;Humidity;BMP_temperature;BMP_pressure;BME280_temperature;BME280_humidity;BME280_pressure;Samples;Min_cycle;Max_cycle;Signal;HPM_P1;HPM_P2
2023/12/07 00:01:50;;;;;;;7.40;3.72;;;;;;;;;;5108337;28;21181;-59
2023/12/07 00:04:17;;;;;;;8.50;4.10;;;;;;;;;;5101059;28;20051;-59
2023/12/07 00:06:45;;;;;;;5.75;3.80;;;;;;;;;;5100380;28;20043;-62
2023/12/07 00:09:13;;;;;;;12.75;4.03;;;;;;;;;;5105354;28;20043;-59
2023/12/07 00:11:41;;;;;;;8.65;3.88;;;;;;;;;;5105599;28;20043;-63
2023/12/07 00:14:08;;;;;;;9.48;4.30;;;;;;;;;;5092657;28;20054;-60
2023/12/07 00:16:35;;;;;;;11.70;4.00;;;;;;;;;;5100719;28;20066;-59
2023/12/07 00:19:02;;;;;;;8.57;3.85;;;;;;;;;;5094371;28;20055;-60
2023/12/07 00:21:30;;;;;;;8.70;3.85;;;;;;;;;;5105243;28;20048;-62
2023/12/07 00:23:57;;;;;;;9.70;4.10;;;;;;;;;;5104026;28;20044;-59
2023/12/07 00:26:26;;;;;;;7.63;4.10;;;;;;;;;;5105430;28;20513;-62
2023/12/07 00:28:53;;;;;;;8.75;4.38;;;;;;;;;;5106743;28;20513;-59
2023/12/07 00:31:21;;;;;;;11.05;4.10;;;;;;;;;;5103333;28;20055;-59
2023/12/07 00:33:48;;;;;;;13.38;4.95;;;;;;;;;;5102530;28;20101;-60
2023/12/07 00:36:16;;;;;;;10.50;4.72;;;;;;;;;;5099509;28;20047;-59
2023/12/07 00:38:43;;;;;;;8.93;4.60;;;;;;;;;;5103647;28;20039;-60
2023/12/07 00:41:10;;;;;;;8.77;4.40;;;;;;;;;;5094156;28;20060;-58
2023/12/07 00:43:39;;;;;;;9.52;4.43;;;;;;;;;;5100719;28;20040;-61
2023/12/07 00:46:08;;;;;;;7.57;4.60;;;;;;;;;;5101013;28;20135;-59
2023/12/07 00:48:36;;;;;;;7.38;4.72;;;;;;;;;;5101338;28;20051;-60
2023/12/07 00:51:03;;;;;;;8.70;4.50;;;;;;;;;;5106066;28;20078;-59
2023/12/07 00:53:30;;;;;;;11.73;4.68;;;;;;;;;;5103373;28;20493;-60
2023/12/07 00:55:57;;;;;;;9.85;4.55;;;;;;;;;;5100491;28;20059;-59
2023/12/07 00:58:25;;;;;;;10.18;4.80;;;;;;;;;;5105623;28;20058;-60
2023/12/07 01:00:54;;;;;;;6.57;4.05;;;;;;;;;;5104320;28;20573;-59
2023/12/07 01:03:21;;;;;;;7.70;4.38;;;;;;;;;;5098185;28;20036;-60
2023/12/07 01:05:48;;;;;;;8.00;4.45;;;;;;;;;;5086389;28;20048;-61
2023/12/07 01:08:15;;;;;;;9.30;4.60;;;;;;;;;;5099740;28;20043;-63
2023/12/07 01:10:43;;;;;;;11.75;4.95;;;;;;;;;;5099810;28;20048;-59
2023/12/07 01:13:10;;;;;;;8.85;4.40;;;;;;;;;;5102706;28;20051;-59
2023/12/07 01:15:37;;;;;;;10.07;4.30;;;;;;;;;;5102146;28;20051;-61
2023/12/07 01:18:06;;;;;;;7.45;4.78;;;;;;;;;;5102397;28;20066;-59
2023/12/07 01:20:33;;;;;;;9.57;4.57;;;;;;;;;;5107890;28;20052;-60
2023/12/07 01:23:00;;;;;;;7.07;4.22;;;;;;;;;;5108614;28;20055;-60
2023/12/07 01:25:28;;;;;;;8.57;4.38;;;;;;;;;;5105088;28;20502;-60
2023/12/07 01:27:55;;;;;;;9.90;3.78;;;;;;;;;;5108807;28;20076;-59
2023/12/07 01:30:22;;;;;;;8.75;4.03;;;;;;;;;;5104260;28;20052;-60
2023/12/07 01:32:49;;;;;;;8.13;3.60;;;;;;;;;;5107187;28;20059;-59
2023/12/07 01:35:18;;;;;;;7.38;3.40;;;;;;;;;;5107417;28;20074;-59
2023/12/07 01:37:45;;;;;;;10.88;3.95;;;;;;;;;;5107499;28;20082;-60
2023/12/07 01:40:14;;;;;;;7.22;3.53;;;;;;;;;;5104093;28;20047;-59
2023/12/07 01:42:42;;;;;;;8.63;3.10;;;;;;;;;;5100598;28;20100;-60
2023/12/07 01:45:09;;;;;;;5.50;3.25;;;;;;;;;;5104832;28;20063;-59
2023/12/07 01:47:38;;;;;;;6.13;3.17;;;;;;;;;;5103415;28;20051;-59
2023/12/07 01:50:06;;;;;;;8.07;3.30;;;;;;;;;;5105440;28;20044;-59
2023/12/07 01:52:36;;;;;;;6.97;3.50;;;;;;;;;;5106403;28;20058;-60
2023/12/07 01:55:04;;;;;;;6.70;3.45;;;;;;;;;;5107609;28;20036;-59
2023/12/07 01:57:31;;;;;;;9.73;3.42;;;;;;;;;;5103959;28;20052;-60
2023/12/07 01:59:58;;;;;;;7.63;3.20;;;;;;;;;;5102990;28;20407;-62
2023/12/07 02:02:26;;;;;;;6.93;3.28;;;;;;;;;;5107490;28;20065;-61
2023/12/07 02:04:53;;;;;;;7.72;3.67;;;;;;;;;;5102791;28;20062;-62
2023/12/07 02:07:21;;;;;;;7.15;3.53;;;;;;;;;;5107753;28;20397;-60
2023/12/07 02:09:49;;;;;;;7.68;3.70;;;;;;;;;;5107274;28;20054;-60
2023/12/07 02:12:19;;;;;;;7.97;3.70;;;;;;;;;;5104208;28;20096;-61
2023/12/07 02:14:46;;;;;;;6.75;3.40;;;;;;;;;;5105422;28;20051;-62
2023/12/07 02:17:16;;;;;;;6.10;3.55;;;;;;;;;;5106101;28;20470;-63
2023/12/07 02:19:51;;;;;;;6.65;3.17;;;;;;;;;;5067732;28;20048;-62
2023/12/07 02:22:19;;;;;;;6.63;3.35;;;;;;;;;;5063942;28;20056;-62
2023/12/07 02:24:49;;;;;;;6.13;3.83;;;;;;;;;;5075207;28;20048;-62
2023/12/07 02:27:18;;;;;;;5.70;3.67;;;;;;;;;;5063682;28;20080;-62
2023/12/07 02:29:45;;;;;;;10.50;3.88;;;;;;;;;;5071948;28;20043;-62
2023/12/07 02:32:13;;;;;;;6.00;3.47;;;;;;;;;;5074384;28;20135;-63
2023/12/07 02:34:40;;;;;;;7.55;3.70;;;;;;;;;;5069443;28;20098;-61
2023/12/07 02:37:08;;;;;;;7.55;3.88;;;;;;;;;;5065708;28;20045;-62
2023/12/07 02:39:35;;;;;;;8.80;4.03;;;;;;;;;;5066222;28;21397;-62
2023/12/07 02:42:03;;;;;;;7.70;3.67;;;;;;;;;;5062167;28;20530;-62
2023/12/07 02:44:31;;;;;;;8.65;3.58;;;;;;;;;;5073830;28;20072;-62
2023/12/07 02:47:00;;;;;;;8.02;4.22;;;;;;;;;;5066395;28;22024;-62
2023/12/07 02:49:27;;;;;;;8.50;4.13;;;;;;;;;;5070455;28;20399;-60
2023/12/07 02:51:54;;;;;;;8.38;3.70;;;;;;;;;;5071274;28;20052;-60
2023/12/07 02:54:21;;;;;;;8.88;3.97;;;;;;;;;;5059307;28;20048;-60
2023/12/07 02:56:49;;;;;;;11.70;4.25;;;;;;;;;;5067409;28;20428;-60
2023/12/07 02:59:17;;;;;;;8.45;4.05;;;;;;;;;;5061954;28;20056;-60
2023/12/07 03:01:45;;;;;;;8.05;3.80;;;;;;;;;;5072620;28;20357;-59
2023/12/07 03:04:12;;;;;;;6.55;3.90;;;;;;;;;;5063827;28;20594;-60
2023/12/07 03:06:40;;;;;;;7.57;3.97;;;;;;;;;;5067089;28;20044;-61
2023/12/07 03:09:07;;;;;;;9.93;3.60;;;;;;;;;;5068002;28;20056;-62
2023/12/07 03:11:34;;;;;;;6.50;3.90;;;;;;;;;;5067539;28;20048;-59
2023/12/07 03:14:01;;;;;;;6.93;3.85;;;;;;;;;;5069389;28;20049;-60
2023/12/07 03:16:29;;;;;;;8.30;3.85;;;;;;;;;;5063437;28;20405;-62
2023/12/07 03:18:57;;;;;;;7.38;3.83;;;;;;;;;;5085601;28;20055;-60
2023/12/07 03:21:25;;;;;;;8.23;3.58;;;;;;;;;;5096882;28;20047;-60
2023/12/07 03:23:52;;;;;;;5.90;3.55;;;;;;;;;;5101766;28;20047;-60
2023/12/07 03:26:19;;;;;;;8.55;3.83;;;;;;;;;;5104817;28;20051;-59
2023/12/07 03:28:46;;;;;;;5.72;3.35;;;;;;;;;;5104487;28;20040;-60
2023/12/07 03:31:13;;;;;;;7.40;3.75;;;;;;;;;;5105662;28;20043;-59
2023/12/07 03:33:42;;;;;;;7.40;3.88;;;;;;;;;;5105119;28;20040;-60
2023/12/07 03:36:13;;;;;;;7.50;3.60;;;;;;;;;;5080596;28;20055;-60
2023/12/07 03:38:41;;;;;;;7.78;3.28;;;;;;;;;;5100934;28;20058;-59
2023/12/07 03:41:08;;;;;;;7.07;3.13;;;;;;;;;;5106238;28;20119;-60
2023/12/07 03:43:35;;;;;;;7.95;3.53;;;;;;;;;;5087002;28;20050;-59
2023/12/07 03:46:05;;;;;;;6.22;3.05;;;;;;;;;;5103927;28;20059;-60
2023/12/07 03:48:33;;;;;;;7.18;2.72;;;;;;;;;;5103075;28;20043;-60
2023/12/07 03:51:00;;;;;;;9.68;3.10;;;;;;;;;;5105724;28;20043;-59
2023/12/07 03:53:29;;;;;;;5.65;2.92;;;;;;;;;;5097171;28;20043;-61
2023/12/07 03:55:57;;;;;;;4.25;2.58;;;;;;;;;;5102239;28;20043;-60
2023/12/07 03:58:24;;;;;;;3.72;2.35;;;;;;;;;;5107108;28;20630;-60
2023/12/07 04:00:51;;;;;;;5.35;2.88;;;;;;;;;;5104721;28;20052;-60
2023/12/07 04:03:18;;;;;;;6.15;3.00;;;;;;;;;;5103618;28;20406;-59
2023/12/07 04:05:46;;;;;;;4.95;2.60;;;;;;;;;;5100569;28;20044;-60
2023/12/07 04:08:13;;;;;;;5.20;2.97;;;;;;;;;;5105036;28;20139;-63
2023/12/07 04:10:41;;;;;;;5.38;2.65;;;;;;;;;;5101177;28;20051;-59
2023/12/07 04:13:09;;;;;;;7.03;2.83;;;;;;;;;;5099208;28;20052;-60
2023/12/07 04:15:36;;;;;;;4.20;2.60;;;;;;;;;;5107892;28;20479;-60
2023/12/07 04:18:03;;;;;;;4.63;2.75;;;;;;;;;;5105140;28;20047;-60
2023/12/07 04:20:30;;;;;;;9.00;3.10;;;;;;;;;;5106729;28;20052;-60
2023/12/07 04:22:58;;;;;;;3.70;2.33;;;;;;;;;;5097567;28;20052;-61
2023/12/07 04:25:25;;;;;;;5.57;2.88;;;;;;;;;;5095552;28;20123;-60
2023/12/07 04:27:53;;;;;;;4.32;2.50;;;;;;;;;;5104435;28;20051;-59
2023/12/07 04:30:21;;;;;;;3.65;2.35;;;;;;;;;;5107017;28;20043;-60
2023/12/07 04:32:48;;;;;;;4.32;2.63;;;;;;;;;;5099992;28;20059;-59
2023/12/07 04:35:15;;;;;;;5.05;2.75;;;;;;;;;;5103225;28;20127;-59
2023/12/07 04:37:43;;;;;;;5.25;2.83;;;;;;;;;;5105019;28;20047;-60
2023/12/07 04:40:10;;;;;;;5.03;2.80;;;;;;;;;;5107663;28;20079;-60
2023/12/07 04:42:37;;;;;;;4.90;2.95;;;;;;;;;;5104549;28;20043;-59
2023/12/07 04:45:07;;;;;;;9.20;3.25;;;;;;;;;;5081581;28;20048;-60
2023/12/07 04:47:34;;;;;;;6.22;3.17;;;;;;;;;;5101511;28;20043;-60
2023/12/07 04:50:01;;;;;;;4.93;2.85;;;;;;;;;;5103966;28;20055;-62
2023/12/07 04:52:29;;;;;;;7.40;2.97;;;;;;;;;;5092858;28;20510;-60
2023/12/07 04:54:56;;;;;;;6.20;3.55;;;;;;;;;;5085819;28;20097;-60
2023/12/07 04:57:23;;;;;;;6.97;3.80;;;;;;;;;;5109863;28;20044;-58
2023/12/07 04:59:50;;;;;;;6.43;2.88;;;;;;;;;;5106686;28;20070;-61
2023/12/07 05:02:19;;;;;;;5.50;3.28;;;;;;;;;;5108499;28;20051;-59
2023/12/07 05:04:47;;;;;;;5.65;3.47;;;;;;;;;;5105167;28;20052;-60
2023/12/07 05:07:14;;;;;;;6.30;3.20;;;;;;;;;;5105937;28;20040;-60
2023/12/07 05:09:41;;;;;;;8.15;3.15;;;;;;;;;;5103291;28;20118;-59
2023/12/07 05:12:09;;;;;;;7.30;3.45;;;;;;;;;;5102823;28;20685;-59
2023/12/07 05:14:36;;;;;;;6.15;3.35;;;;;;;;;;5105832;28;20671;-59
2023/12/07 05:17:05;;;;;;;11.38;3.85;;;;;;;;;;5097257;28;20055;-59
2023/12/07 05:19:33;;;;;;;8.02;3.80;;;;;;;;;;5107607;28;20056;-60
2023/12/07 05:22:00;;;;;;;8.25;3.80;;;;;;;;;;5108670;28;20047;-59
2023/12/07 05:24:28;;;;;;;9.93;3.90;;;;;;;;;;5109201;28;20065;-63
2023/12/07 05:26:55;;;;;;;7.78;3.78;;;;;;;;;;5110824;28;20058;-59
2023/12/07 05:29:22;;;;;;;5.78;2.83;;;;;;;;;;5103320;28;20055;-60
2023/12/07 05:31:50;;;;;;;5.95;3.58;;;;;;;;;;5103903;28;20119;-59
2023/12/07 05:34:18;;;;;;;7.22;3.70;;;;;;;;;;5106529;28;20047;-60
2023/12/07 05:36:47;;;;;;;6.93;3.35;;;;;;;;;;5105823;28;20083;-59
2023/12/07 05:39:17;;;;;;;6.35;3.85;;;;;;;;;;5107881;28;20623;-60
2023/12/07 05:41:46;;;;;;;9.45;4.10;;;;;;;;;;5101091;28;20074;-59
2023/12/07 05:44:14;;;;;;;7.55;3.65;;;;;;;;;;5101456;28;20482;-59
2023/12/07 05:46:44;;;;;;;6.22;3.53;;;;;;;;;;5110246;28;20040;-60
2023/12/07 05:49:11;;;;;;;7.85;4.13;;;;;;;;;;5103721;28;20452;-60
2023/12/07 05:51:38;;;;;;;7.20;3.78;;;;;;;;;;5109502;28;20047;-61
2023/12/07 05:54:08;;;;;;;12.57;4.18;;;;;;;;;;5106197;27;20048;-59
2023/12/07 05:56:35;;;;;;;7.32;4.10;;;;;;;;;;5086072;28;20039;-59
2023/12/07 05:59:02;;;;;;;10.15;4.70;;;;;;;;;;5103318;28;20561;-60
2023/12/07 06:01:30;;;;;;;9.70;4.20;;;;;;;;;;5104419;28;20047;-61
2023/12/07 06:03:57;;;;;;;8.80;4.05;;;;;;;;;;5109467;28;20040;-60
2023/12/07 06:06:24;;;;;;;8.05;4.25;;;;;;;;;;5106514;28;20047;-59
2023/12/07 06:08:51;;;;;;;9.20;4.43;;;;;;;;;;5104260;28;20055;-59
2023/12/07 06:11:20;;;;;;;9.57;5.03;;;;;;;;;;5098579;28;20055;-59
2023/12/07 06:13:47;;;;;;;10.35;5.13;;;;;;;;;;5105777;28;21051;-59
2023/12/07 06:16:15;;;;;;;9.70;5.63;;;;;;;;;;5102098;28;20059;-59
2023/12/07 06:18:42;;;;;;;11.27;5.40;;;;;;;;;;5076696;28;20110;-59
2023/12/07 06:21:10;;;;;;;9.57;5.15;;;;;;;;;;5064418;28;20091;-60
2023/12/07 06:23:37;;;;;;;12.20;5.70;;;;;;;;;;5066884;28;20051;-59
2023/12/07 06:26:05;;;;;;;18.90;8.80;;;;;;;;;;5067846;28;20044;-59
2023/12/07 06:28:33;;;;;;;19.23;8.48;;;;;;;;;;5063687;28;20075;-60
2023/12/07 06:31:06;;;;;;;16.17;6.57;;;;;;;;;;5062965;28;20097;-60
2023/12/07 06:33:34;;;;;;;13.75;6.78;;;;;;;;;;5064196;28;20052;-59
2023/12/07 06:36:03;;;;;;;15.20;6.32;;;;;;;;;;5071577;28;20139;-61
2023/12/07 06:38:30;;;;;;;11.50;6.35;;;;;;;;;;5069666;28;20544;-61
2023/12/07 06:40:58;;;;;;;11.27;6.20;;;;;;;;;;5061410;28;20444;-62
2023/12/07 06:43:25;;;;;;;13.63;5.95;;;;;;;;;;5062629;28;20102;-60
2023/12/07 06:45:54;;;;;;;16.55;6.72;;;;;;;;;;5062855;28;20040;-60
2023/12/07 06:48:22;;;;;;;15.35;6.50;;;;;;;;;;5064875;28;20080;-59
2023/12/07 06:50:49;;;;;;;13.65;6.38;;;;;;;;;;5057809;28;20060;-60
2023/12/07 06:53:18;;;;;;;12.63;6.53;;;;;;;;;;5055699;28;20492;-59
2023/12/07 06:55:45;;;;;;;15.68;6.90;;;;;;;;;;5066125;28;20044;-61
2023/12/07 06:58:12;;;;;;;14.73;7.10;;;;;;;;;;5064203;28;20060;-60
2023/12/07 07:00:40;;;;;;;18.77;7.28;;;;;;;;;;5062692;28;20522;-60
2023/12/07 07:03:08;;;;;;;15.98;7.82;;;;;;;;;;5058575;28;20060;-58
2023/12/07 07:05:35;;;;;;;13.75;6.93;;;;;;;;;;5055395;28;20044;-58
2023/12/07 07:08:03;;;;;;;16.45;7.30;;;;;;;;;;5064668;28;20044;-59
2023/12/07 07:10:30;;;;;;;15.68;7.45;;;;;;;;;;5063099;28;20083;-60
2023/12/07 07:13:01;;;;;;;15.48;7.57;;;;;;;;;;5066229;28;20067;-59
2023/12/07 07:15:28;;;;;;;17.75;7.38;;;;;;;;;;5063257;28;20044;-59
2023/12/07 07:17:55;;;;;;;18.95;8.80;;;;;;;;;;5062785;28;20048;-60
2023/12/07 07:20:24;;;;;;;16.25;7.97;;;;;;;;;;5106787;28;20048;-60
2023/12/07 07:22:51;;;;;;;20.13;7.72;;;;;;;;;;5103721;28;20055;-60
2023/12/07 07:25:19;;;;;;;15.63;7.40;;;;;;;;;;5107766;28;20059;-58
2023/12/07 07:27:47;;;;;;;18.60;7.55;;;;;;;;;;5103483;28;20043;-60
2023/12/07 07:30:14;;;;;;;15.32;7.07;;;;;;;;;;5107998;28;20435;-60
2023/12/07 07:32:41;;;;;;;17.60;7.72;;;;;;;;;;5106466;28;20482;-60
2023/12/07 07:35:11;;;;;;;13.10;6.72;;;;;;;;;;5104269;28;20058;-61
2023/12/07 07:37:41;;;;;;;16.50;7.55;;;;;;;;;;5101883;28;20093;-59
2023/12/07 07:40:11;;;;;;;15.93;7.22;;;;;;;;;;5095882;28;20047;-60
2023/12/07 07:42:39;;;;;;;15.52;7.70;;;;;;;;;;5107074;28;20101;-60
2023/12/07 07:45:07;;;;;;;14.35;7.32;;;;;;;;;;5099075;28;20051;-59
2023/12/07 07:47:35;;;;;;;13.60;7.20;;;;;;;;;;5101596;28;20229;-60
2023/12/07 07:50:05;;;;;;;15.48;6.57;;;;;;;;;;5093122;28;20040;-59
2023/12/07 07:52:33;;;;;;;17.33;7.30;;;;;;;;;;5082215;28;20039;-60
2023/12/07 07:55:02;;;;;;;19.73;7.88;;;;;;;;;;5097873;28;20120;-59
2023/12/07 07:57:30;;;;;;;16.10;7.70;;;;;;;;;;5105740;28;20560;-59
2023/12/07 07:59:57;;;;;;;15.63;7.60;;;;;;;;;;5087013;28;20486;-59
2023/12/07 08:02:25;;;;;;;17.25;7.97;;;;;;;;;;5105500;28;20047;-60
2023/12/07 08:04:52;;;;;;;16.90;8.55;;;;;;;;;;5102974;28;20070;-60
2023/12/07 08:07:20;;;;;;;19.80;8.00;;;;;;;;;;5107235;28;20413;-60
2023/12/07 08:09:47;;;;;;;20.10;8.10;;;;;;;;;;5104296;28;20043;-60
2023/12/07 08:12:15;;;;;;;23.48;8.25;;;;;;;;;;5104831;28;20380;-59
2023/12/07 08:14:44;;;;;;;16.98;7.90;;;;;;;;;;5089428;28;20047;-60
2023/12/07 08:17:11;;;;;;;18.38;8.68;;;;;;;;;;5096676;28;20447;-60
2023/12/07 08:19:38;;;;;;;18.00;8.63;;;;;;;;;;5101047;28;20052;-60
2023/12/07 08:22:06;;;;;;;19.67;9.07;;;;;;;;;;5105029;28;20449;-59
2023/12/07 08:24:33;;;;;;;19.10;8.75;;;;;;;;;;5103468;28;20066;-59
2023/12/07 08:27:00;;;;;;;21.45;9.27;;;;;;;;;;5110477;28;20047;-60
2023/12/07 08:29:29;;;;;;;20.38;9.10;;;;;;;;;;5110236;28;20052;-62
2023/12/07 08:31:56;;;;;;;21.25;10.20;;;;;;;;;;5109939;28;20131;-60
2023/12/07 08:34:24;;;;;;;24.90;10.38;;;;;;;;;;5108088;28;20063;-59
2023/12/07 08:36:51;;;;;;;21.67;10.05;;;;;;;;;;5111168;28;20075;-60
2023/12/07 08:39:18;;;;;;;20.00;9.38;;;;;;;;;;5107606;28;20143;-59
2023/12/07 08:41:46;;;;;;;25.33;9.60;;;;;;;;;;5111493;28;20040;-59
2023/12/07 08:44:13;;;;;;;20.40;8.43;;;;;;;;;;5102290;28;20047;-63
2023/12/07 08:46:44;;;;;;;20.73;10.07;;;;;;;;;;5107669;28;20048;-59
2023/12/07 08:49:12;;;;;;;24.27;10.48;;;;;;;;;;5108580;28;20101;-60
2023/12/07 08:51:39;;;;;;;24.33;12.48;;;;;;;;;;5106830;28;20048;-60
2023/12/07 08:54:06;;;;;;;22.88;11.07;;;;;;;;;;5105663;28;20059;-59
2023/12/07 08:56:33;;;;;;;22.20;9.65;;;;;;;;;;5110312;28;20362;-60
2023/12/07 08:59:01;;;;;;;27.55;9.52;;;;;;;;;;5101444;28;20050;-60
2023/12/07 09:01:30;;;;;;;22.90;10.82;;;;;;;;;;5105393;28;20062;-61
2023/12/07 09:03:58;;;;;;;20.67;10.13;;;;;;;;;;5105457;28;20048;-60
2023/12/07 09:06:29;;;;;;;25.95;10.57;;;;;;;;;;5104357;28;20036;-60
2023/12/07 09:08:56;;;;;;;23.40;10.48;;;;;;;;;;5104608;28;20150;-60
2023/12/07 09:11:23;;;;;;;26.92;11.52;;;;;;;;;;5109352;28;20055;-59
2023/12/07 09:13:51;;;;;;;23.92;11.68;;;;;;;;;;5106915;28;20056;-58
2023/12/07 09:16:18;;;;;;;26.77;11.45;;;;;;;;;;5102982;28;20051;-60
2023/12/07 09:18:46;;;;;;;25.27;11.45;;;;;;;;;;5109537;28;20066;-59
2023/12/07 09:21:14;;;;;;;28.90;12.07;;;;;;;;;;5110910;28;20047;-64
2023/12/07 09:23:42;;;;;;;25.88;12.18;;;;;;;;;;5105544;28;20521;-60
2023/12/07 09:26:09;;;;;;;31.73;12.38;;;;;;;;;;5108775;28;20048;-60
2023/12/07 09:28:36;;;;;;;24.65;11.55;;;;;;;;;;5106786;28;20050;-61
2023/12/07 09:31:04;;;;;;;30.73;12.50;;;;;;;;;;5102464;28;20509;-60
2023/12/07 09:33:31;;;;;;;25.15;11.80;;;;;;;;;;5104379;28;20054;-60
2023/12/07 09:35:58;;;;;;;32.80;12.65;;;;;;;;;;5105203;28;20398;-59
2023/12/07 09:38:27;;;;;;;27.83;12.20;;;;;;;;;;5110561;28;20048;-60
2023/12/07 09:40:55;;;;;;;29.90;13.00;;;;;;;;;;5109803;28;20051;-60
2023/12/07 09:43:22;;;;;;;31.63;13.32;;;;;;;;;;5102962;28;20047;-60
2023/12/07 09:45:50;;;;;;;31.15;14.18;;;;;;;;;;5091086;28;20052;-60
2023/12/07 09:48:18;;;;;;;36.33;14.30;;;;;;;;;;5097539;28;20047;-60
2023/12/07 09:50:46;;;;;;;33.13;14.07;;;;;;;;;;5108154;28;20056;-60
2023/12/07 09:53:13;;;;;;;36.08;14.88;;;;;;;;;;5109983;28;20048;-63
2023/12/07 09:55:41;;;;;;;34.40;15.05;;;;;;;;;;5101999;28;20043;-60
2023/12/07 09:58:09;;;;;;;38.60;16.13;;;;;;;;;;5109468;28;20044;-60
2023/12/07 10:00:36;;;;;;;36.55;15.38;;;;;;;;;;5106930;28;20043;-60
2023/12/07 10:03:03;;;;;;;34.63;15.38;;;;;;;;;;5110120;28;20462;-59
2023/12/07 10:05:31;;;;;;;35.03;15.68;;;;;;;;;;5106821;28;20044;-60
2023/12/07 10:07:58;;;;;;;37.17;16.60;;;;;;;;;;5108038;28;20510;-60
2023/12/07 10:10:25;;;;;;;40.35;16.20;;;;;;;;;;5107869;28;20043;-61
2023/12/07 10:12:55;;;;;;;45.90;16.85;;;;;;;;;;5110594;28;20431;-59
2023/12/07 10:15:23;;;;;;;36.72;15.68;;;;;;;;;;5104112;28;20055;-60
2023/12/07 10:17:51;;;;;;;38.90;16.15;;;;;;;;;;5109968;28;20043;-59
2023/12/07 10:20:19;;;;;;;30.50;14.95;;;;;;;;;;5099027;28;20076;-59
2023/12/07 10:22:46;;;;;;;25.55;12.95;;;;;;;;;;5110054;28;20409;-59
2023/12/07 10:25:14;;;;;;;21.08;10.98;;;;;;;;;;5099384;28;20047;-60
2023/12/07 10:27:42;;;;;;;18.48;10.35;;;;;;;;;;5109531;28;20059;-60
2023/12/07 10:30:14;;;;;;;15.63;8.15;;;;;;;;;;5101302;28;20048;-60
2023/12/07 10:32:41;;;;;;;13.52;7.40;;;;;;;;;;5107988;28;20081;-60
2023/12/07 10:35:09;;;;;;;13.27;7.50;;;;;;;;;;5109581;28;20052;-60
2023/12/07 10:37:37;;;;;;;12.50;7.28;;;;;;;;;;5105581;28;20520;-61
2023/12/07 10:40:07;;;;;;;12.20;7.60;;;;;;;;;;5109395;28;20048;-60
2023/12/07 10:42:36;;;;;;;12.52;6.57;;;;;;;;;;5106724;28;20046;-60
2023/12/07 10:45:07;;;;;;;11.30;6.97;;;;;;;;;;5103315;28;20490;-60
2023/12/07 10:47:39;;;;;;;15.50;7.10;;;;;;;;;;5103982;28;20073;-60
2023/12/07 10:50:10;;;;;;;12.60;7.00;;;;;;;;;;5103462;28;20463;-59
2023/12/07 10:52:38;;;;;;;13.95;6.93;;;;;;;;;;5100930;28;20054;-59
2023/12/07 10:55:08;;;;;;;13.77;7.15;;;;;;;;;;5082520;28;20048;-59
2023/12/07 10:57:37;;;;;;;11.75;6.50;;;;;;;;;;5099484;28;20047;-59
2023/12/07 11:00:04;;;;;;;13.48;6.25;;;;;;;;;;5102980;28;20054;-60
2023/12/07 11:02:34;;;;;;;11.52;6.20;;;;;;;;;;5103477;28;20062;-60
2023/12/07 11:05:02;;;;;;;15.98;7.00;;;;;;;;;;5105134;28;20384;-61
2023/12/07 11:07:35;;;;;;;14.35;6.93;;;;;;;;;;5103622;28;20040;-61
2023/12/07 11:10:07;;;;;;;12.98;7.28;;;;;;;;;;5104807;28;20403;-60
2023/12/07 11:12:36;;;;;;;13.52;7.50;;;;;;;;;;5082282;28;20050;-60
2023/12/07 11:15:05;;;;;;;13.32;7.45;;;;;;;;;;5101442;28;20047;-60
2023/12/07 11:17:49;;;;;;;13.13;7.57;;;;;;;;;;5106416;28;20051;-60
2023/12/07 11:20:21;;;;;;;14.98;7.85;;;;;;;;;;5102676;28;20396;-61
2023/12/07 11:22:49;;;;;;;14.70;7.75;;;;;;;;;;5108640;28;20048;-59
2023/12/07 11:25:17;;;;;;;14.68;7.47;;;;;;;;;;5100243;28;20048;-59
2023/12/07 11:27:50;;;;;;;13.93;8.18;;;;;;;;;;5102462;28;20501;-60
2023/12/07 11:30:17;;;;;;;16.67;8.18;;;;;;;;;;5106141;28;20501;-60
2023/12/07 11:32:45;;;;;;;16.80;8.27;;;;;;;;;;5106318;28;20051;-59
2023/12/07 11:35:16;;;;;;;16.90;8.52;;;;;;;;;;5098109;28;20052;-62
2023/12/07 11:38:05;;;;;;;18.80;9.57;;;;;;;;;;5098837;28;20387;-61
2023/12/07 11:40:33;;;;;;;16.67;9.07;;;;;;;;;;5106230;28;20424;-63
2023/12/07 11:43:01;;;;;;;16.48;8.93;;;;;;;;;;5108584;28;20070;-59
2023/12/07 11:45:41;;;;;;;21.90;9.73;;;;;;;;;;5102757;28;20097;-63
2023/12/07 11:48:09;;;;;;;21.45;10.55;;;;;;;;;;5099636;28;20513;-60
2023/12/07 11:50:37;;;;;;;22.38;10.93;;;;;;;;;;5101930;28;20056;-59
2023/12/07 11:53:07;;;;;;;20.02;10.02;;;;;;;;;;5106462;28;20502;-60
2023/12/07 11:55:34;;;;;;;18.05;10.05;;;;;;;;;;5101758;28;20047;-60
2023/12/07 11:58:02;;;;;;;19.88;10.73;;;;;;;;;;5108132;28;20050;-61
2023/12/07 12:00:29;;;;;;;19.00;10.52;;;;;;;;;;5103258;28;20054;-59
2023/12/07 12:02:58;;;;;;;20.30;10.98;;;;;;;;;;5105860;28;20043;-60
2023/12/07 12:05:25;;;;;;;23.50;11.48;;;;;;;;;;5104859;28;20456;-60
2023/12/07 12:07:53;;;;;;;22.10;11.65;;;;;;;;;;5107168;28;20051;-60
2023/12/07 12:10:24;;;;;;;22.58;11.70;;;;;;;;;;5107009;28;20044;-59
2023/12/07 12:12:51;;;;;;;24.60;11.68;;;;;;;;;;5089144;28;20060;-60
2023/12/07 12:15:19;;;;;;;20.27;10.50;;;;;;;;;;5105771;28;20058;-60
2023/12/07 12:17:47;;;;;;;26.05;11.85;;;;;;;;;;5106008;28;20500;-60
2023/12/07 12:20:17;;;;;;;23.83;11.57;;;;;;;;;;5101055;28;20085;-59
2023/12/07 12:22:44;;;;;;;28.23;11.93;;;;;;;;;;5105800;28;20048;-60
2023/12/07 12:25:12;;;;;;;24.25;11.88;;;;;;;;;;5104107;28;20043;-59
2023/12/07 12:27:40;;;;;;;24.98;12.02;;;;;;;;;;5105175;28;20134;-60
2023/12/07 12:30:08;;;;;;;22.67;11.77;;;;;;;;;;5101534;28;20055;-61
2023/12/07 12:32:43;;;;;;;30.25;12.88;;;;;;;;;;5092692;28;20143;-59
2023/12/07 12:35:11;;;;;;;25.45;13.32;;;;;;;;;;5104867;28;20047;-60
2023/12/07 12:37:39;;;;;;;29.83;12.70;;;;;;;;;;5106205;28;20044;-60
2023/12/07 12:40:07;;;;;;;27.10;12.02;;;;;;;;;;5107679;28;20460;-59
2023/12/07 12:42:37;;;;;;;25.10;13.00;;;;;;;;;;5106411;28;20040;-60
2023/12/07 12:45:06;;;;;;;23.77;12.75;;;;;;;;;;5084318;28;20048;-61
2023/12/07 12:47:35;;;;;;;22.70;12.65;;;;;;;;;;5103469;28;20047;-60
2023/12/07 12:50:04;;;;;;;22.00;12.82;;;;;;;;;;5105083;28;20051;-61
2023/12/07 12:52:31;;;;;;;25.23;13.20;;;;;;;;;;5101737;28;20047;-59
2023/12/07 12:54:59;;;;;;;21.55;12.02;;;;;;;;;;5099937;28;20109;-60
2023/12/07 12:57:26;;;;;;;26.83;12.82;;;;;;;;;;5098566;28;20069;-59
2023/12/07 12:59:54;;;;;;;23.85;12.23;;;;;;;;;;5083642;28;20404;-59
2023/12/07 13:02:22;;;;;;;24.05;10.65;;;;;;;;;;5088849;28;20051;-59
2023/12/07 13:04:49;;;;;;;26.25;9.73;;;;;;;;;;5098351;28;20055;-62
2023/12/07 13:07:17;;;;;;;25.55;10.30;;;;;;;;;;5107203;28;20585;-60
2023/12/07 13:09:44;;;;;;;22.42;8.55;;;;;;;;;;5094362;28;20052;-60
2023/12/07 13:12:11;;;;;;;43.58;9.27;;;;;;;;;;5104532;28;20048;-63
2023/12/07 13:14:40;;;;;;;34.67;9.30;;;;;;;;;;5097781;28;20044;-60
2023/12/07 13:17:08;;;;;;;21.80;9.38;;;;;;;;;;5081142;28;20044;-60
2023/12/07 13:19:37;;;;;;;35.20;10.35;;;;;;;;;;5104377;28;20561;-61
2023/12/07 13:22:04;;;;;;;26.67;10.80;;;;;;;;;;5103777;28;20051;-60
2023/12/07 13:24:32;;;;;;;34.95;11.68;;;;;;;;;;5101213;28;20080;-62
2023/12/07 13:27:00;;;;;;;26.25;11.13;;;;;;;;;;5095048;28;20067;-59
2023/12/07 13:29:27;;;;;;;29.15;12.23;;;;;;;;;;5104319;28;20044;-60
2023/12/07 13:31:54;;;;;;;35.80;12.18;;;;;;;;;;5100707;28;20109;-61
2023/12/07 13:34:22;;;;;;;49.50;12.10;;;;;;;;;;5083256;28;20056;-60
2023/12/07 13:36:50;;;;;;;29.35;10.93;;;;;;;;;;5102696;28;20121;-61
2023/12/07 13:39:20;;;;;;;36.97;11.75;;;;;;;;;;5105172;28;20134;-60
2023/12/07 13:41:49;;;;;;;34.22;11.40;;;;;;;;;;5102765;28;20051;-60
2023/12/07 13:44:18;;;;;;;34.13;11.38;;;;;;;;;;5094835;28;20051;-61
2023/12/07 13:46:45;;;;;;;29.10;10.88;;;;;;;;;;5103591;28;20487;-60
2023/12/07 13:49:14;;;;;;;39.38;11.63;;;;;;;;;;5096673;28;20067;-60
2023/12/07 13:51:41;;;;;;;28.55;11.70;;;;;;;;;;5106568;28;20047;-62
2023/12/07 13:54:10;;;;;;;25.65;10.75;;;;;;;;;;5106637;28;20124;-60
2023/12/07 13:56:37;;;;;;;36.72;9.88;;;;;;;;;;5103726;28;20521;-60
2023/12/07 13:59:07;;;;;;;41.20;10.43;;;;;;;;;;5107130;28;20070;-59
2023/12/07 14:01:34;;;;;;;31.25;10.05;;;;;;;;;;5104559;28;20043;-60
2023/12/07 14:04:02;;;;;;;39.30;10.70;;;;;;;;;;5106090;28;20074;-61
2023/12/07 14:06:30;;;;;;;25.92;11.07;;;;;;;;;;5109666;28;20059;-62
2023/12/07 14:08:57;;;;;;;24.42;10.88;;;;;;;;;;5103753;28;20371;-60
2023/12/07 14:11:26;;;;;;;32.40;11.07;;;;;;;;;;5103641;28;20059;-59
2023/12/07 14:13:54;;;;;;;40.83;10.63;;;;;;;;;;5103452;28;20040;-60
2023/12/07 14:16:22;;;;;;;26.85;10.40;;;;;;;;;;5100903;28;20048;-64
2023/12/07 14:18:49;;;;;;;29.58;9.95;;;;;;;;;;5100351;28;20188;-60
2023/12/07 14:21:21;;;;;;;37.10;10.48;;;;;;;;;;5100003;28;20054;-60
2023/12/07 14:23:48;;;;;;;28.20;11.30;;;;;;;;;;5101434;28;20495;-61
2023/12/07 14:26:16;;;;;;;37.88;10.80;;;;;;;;;;5101546;28;20133;-61
2023/12/07 14:28:44;;;;;;;23.58;10.95;;;;;;;;;;5108697;28;20048;-61
2023/12/07 14:31:16;;;;;;;33.72;11.45;;;;;;;;;;5100794;28;20059;-60
2023/12/07 14:33:44;;;;;;;26.23;10.90;;;;;;;;;;5106777;28;20048;-61
2023/12/07 14:36:12;;;;;;;29.65;11.65;;;;;;;;;;5107932;28;20059;-60